createdAt,value
2022-10-20T00:02:16.882Z,37.75
2022-10-20T00:12:07.148Z,33.85
2022-10-20T00:14:52.987Z,42.50
2022-10-20T00:17:38.640Z,37.83
2022-10-20T00:20:24.325Z,39.47
2022-10-20T00:23:42.937Z,40.92
2022-10-20T00:30:32.109Z,41.58
2022-10-20T00:33:47.115Z,37.72
2022-10-20T00:37:10.243Z,43.38
2022-10-20T00:40:40.095Z,40.75
2022-10-20T00:48:28.163Z,43.20
2022-10-20T00:51:26.779Z,49.08
2022-10-20T00:54:46.045Z,44.45
2022-10-20T00:57:42.181Z,49.58
2022-10-20T01:01:19.758Z,42.22
2022-10-20T01:04:05.132Z,49.13
2022-10-20T01:06:51.662Z,45.47
2022-10-20T01:13:56.719Z,48.17
2022-10-20T01:17:13.369Z,43.33
2022-10-20T01:20:08.079Z,44.22
2022-10-20T01:22:53.405Z,43.53
2022-10-20T01:26:18.505Z,47.28
2022-10-20T01:29:19.769Z,45.33
2022-10-20T01:32:26.208Z,45.55
2022-10-20T01:35:21.757Z,40.47
2022-10-20T01:38:28.298Z,43.47
2022-10-20T01:41:32.929Z,46.50
2022-10-20T01:44:20.871Z,40.53
2022-10-20T01:47:06.589Z,43.33
2022-10-20T01:49:52.931Z,36.00
2022-10-20T01:52:38.573Z,44.95
2022-10-20T01:55:24.693Z,39.00
2022-10-20T01:58:16.221Z,41.67
2022-10-20T02:01:17.686Z,42.47
2022-10-20T02:04:04.897Z,41.25
2022-10-20T02:07:05.450Z,40.58
2022-10-20T02:09:58.080Z,46.60
2022-10-20T02:12:50.991Z,43.87
2022-10-20T02:15:46.593Z,45.05
2022-10-20T02:18:36.978Z,40.67
2022-10-20T02:21:50.794Z,39.35
2022-10-20T02:24:40.542Z,50.22
2022-10-20T02:27:35.030Z,46.22
2022-10-20T02:30:21.122Z,41.88
2022-10-20T02:33:12.631Z,42.30
2022-10-20T02:35:59.553Z,39.30
2022-10-20T02:38:49.120Z,39.78
2022-10-20T02:41:34.678Z,42.17
2022-10-20T02:44:19.858Z,43.70
2022-10-20T02:47:05.323Z,45.35
2022-10-20T02:49:53.968Z,40.75
2022-10-20T02:52:40.828Z,41.05
2022-10-20T02:55:26.255Z,45.45
2022-10-20T02:58:12.280Z,46.35
2022-10-20T03:00:58.015Z,46.67
2022-10-20T03:03:43.712Z,40.80
2022-10-20T03:06:29.198Z,49.17
2022-10-20T03:09:14.523Z,44.58
2022-10-20T03:11:59.702Z,50.08
2022-10-20T03:14:50.619Z,42.55
2022-10-20T03:17:43.371Z,41.97
2022-10-20T03:20:29.690Z,41.92
2022-10-20T03:23:23.118Z,49.67
2022-10-20T03:26:11.604Z,49.75
2022-10-20T03:28:56.653Z,43.97
2022-10-20T03:31:41.941Z,41.80
2022-10-20T03:34:27.231Z,51.67
2022-10-20T03:37:15.252Z,48.25
2022-10-20T03:40:01.351Z,48.65
2022-10-20T03:42:46.591Z,51.03
2022-10-20T03:45:31.850Z,53.97
2022-10-20T03:48:17.508Z,50.55
2022-10-20T03:51:28.410Z,48.50
2022-10-20T03:54:15.978Z,54.97
2022-10-20T03:57:02.987Z,51.08
2022-10-20T03:59:50.499Z,47.05
2022-10-20T04:02:46.166Z,54.80
2022-10-20T04:05:32.047Z,52.17
2022-10-20T04:08:17.658Z,51.67
2022-10-20T04:11:05.543Z,46.95
2022-10-20T04:13:51.692Z,51.85
2022-10-20T04:16:36.770Z,53.03
2022-10-20T04:19:25.914Z,51.13
2022-10-20T04:22:12.452Z,52.42
2022-10-20T04:24:58.215Z,51.85
2022-10-20T04:27:43.772Z,56.47
2022-10-20T04:30:29.021Z,52.22
2022-10-20T04:33:19.581Z,48.35
2022-10-20T04:36:07.765Z,52.28
2022-10-20T04:38:52.936Z,52.95
2022-10-20T04:41:38.481Z,54.80
2022-10-20T04:44:23.891Z,47.15
2022-10-20T04:47:09.654Z,50.95
2022-10-20T04:49:54.997Z,49.13
2022-10-20T04:52:40.451Z,49.85
2022-10-20T04:55:41.386Z,55.60
2022-10-20T04:58:38.008Z,54.97
2022-10-20T05:01:28.214Z,47.58
2022-10-20T05:04:21.219Z,53.72
2022-10-20T05:07:06.491Z,47.13
2022-10-20T05:09:52.348Z,55.28
2022-10-20T05:12:47.058Z,49.00
2022-10-20T05:15:35.002Z,50.67
2022-10-20T05:18:29.223Z,51.83
2022-10-20T05:21:17.245Z,60.90
2022-10-20T05:24:04.801Z,58.53
2022-10-20T05:26:50.079Z,57.50
2022-10-20T05:29:35.510Z,46.10
2022-10-20T05:32:20.867Z,54.10
2022-10-20T05:35:06.791Z,63.42
2022-10-20T05:37:52.307Z,55.17
2022-10-20T05:40:37.786Z,64.13
2022-10-20T05:43:23.550Z,57.75
2022-10-20T05:46:09.664Z,50.40
2022-10-20T05:48:57.139Z,56.92
2022-10-20T05:51:42.990Z,53.03
2022-10-20T05:54:28.393Z,52.42
2022-10-20T05:57:14.002Z,54.17
2022-10-20T05:59:59.491Z,56.78
2022-10-20T06:02:45.349Z,60.75
2022-10-20T06:05:30.907Z,63.85
2022-10-20T06:08:16.441Z,55.45
2022-10-20T06:11:09.976Z,62.08
2022-10-20T06:13:56.781Z,55.80
2022-10-20T06:16:42.329Z,59.78
2022-10-20T06:19:28.770Z,65.85
2022-10-20T06:22:14.431Z,62.83
2022-10-20T06:24:59.838Z,58.72
2022-10-20T06:27:45.249Z,52.67
2022-10-20T06:30:31.014Z,71.50
2022-10-20T06:33:16.962Z,58.30
2022-10-20T06:36:02.474Z,62.03
2022-10-20T06:38:48.734Z,63.58
2022-10-20T06:41:34.897Z,54.13
2022-10-20T06:44:24.711Z,54.00
2022-10-20T06:47:10.418Z,60.22
2022-10-20T06:49:55.663Z,58.60
2022-10-20T06:52:41.397Z,54.95
2022-10-20T06:55:26.846Z,50.03
2022-10-20T06:58:12.379Z,53.72
2022-10-20T07:01:14.741Z,58.45
2022-10-20T07:04:05.871Z,52.20
2022-10-20T07:06:51.108Z,58.92
2022-10-20T07:09:36.700Z,56.40
2022-10-20T07:12:22.083Z,48.95
2022-10-20T07:15:07.922Z,47.97
2022-10-20T07:17:53.411Z,43.40
2022-10-20T07:20:38.757Z,41.47
2022-10-20T07:23:24.620Z,37.05
2022-10-20T07:26:22.668Z,41.47
2022-10-20T07:29:08.841Z,31.00
2022-10-20T07:31:55.992Z,36.92
2022-10-20T07:34:43.198Z,35.58
2022-10-20T07:37:29.251Z,32.45
2022-10-20T07:40:14.831Z,36.33
2022-10-20T07:43:00.212Z,38.50
2022-10-20T08:26:30.723Z,33.37
2022-10-20T08:29:15.826Z,36.67
2022-10-20T08:32:01.339Z,33.47
2022-10-20T08:34:47.050Z,32.42
2022-10-20T08:37:33.053Z,33.85
2022-10-20T08:40:23.436Z,33.60
2022-10-20T08:43:17.867Z,29.27
2022-10-20T08:46:04.431Z,31.20
2022-10-20T08:48:50.370Z,29.98
2022-10-20T08:51:38.441Z,29.25
2022-10-20T08:54:24.971Z,27.65
2022-10-20T08:57:26.064Z,22.90
2022-10-20T09:00:19.115Z,27.50
2022-10-20T09:03:19.159Z,21.90
2022-10-20T09:06:16.448Z,33.22
2022-10-20T09:09:02.206Z,25.70
2022-10-20T09:11:48.835Z,23.48
2022-10-20T09:14:37.086Z,22.48
2022-10-20T09:17:22.466Z,28.92
2022-10-20T09:20:19.988Z,25.52
2022-10-20T09:23:16.667Z,23.50
2022-10-20T09:26:37.396Z,26.60
2022-10-20T09:29:37.215Z,23.05
2022-10-20T09:32:45.991Z,22.73
2022-10-20T09:35:38.254Z,15.85
2022-10-20T09:38:29.519Z,18.73
2022-10-20T09:41:21.825Z,17.17
2022-10-20T09:44:23.514Z,18.75
2022-10-20T09:47:14.726Z,17.15
2022-10-20T09:50:08.248Z,20.10
2022-10-20T09:52:54.596Z,15.48
2022-10-20T09:55:49.423Z,13.63
2022-10-20T09:58:42.658Z,16.45
2022-10-20T10:01:28.654Z,14.75
2022-10-20T10:04:33.280Z,17.92
2022-10-20T10:07:28.210Z,17.30
2022-10-20T10:10:19.598Z,18.05
2022-10-20T10:16:15.255Z,15.63
2022-10-20T10:19:03.180Z,14.15
2022-10-20T10:22:01.794Z,13.50
2022-10-20T10:24:49.348Z,15.63
2022-10-20T10:27:36.471Z,15.90
2022-10-20T10:30:27.717Z,17.73
2022-10-20T10:33:39.529Z,18.35
2022-10-20T10:36:36.592Z,14.20
2022-10-20T10:39:21.913Z,15.63
2022-10-20T10:42:07.455Z,16.63
2022-10-20T10:45:11.782Z,16.38
2022-10-20T10:47:59.922Z,15.55
2022-10-20T10:51:07.606Z,14.90
2022-10-20T10:54:12.103Z,14.02
2022-10-20T10:57:07.982Z,10.90
2022-10-20T10:59:59.534Z,15.10
2022-10-20T11:03:18.866Z,11.32
2022-10-20T11:06:18.858Z,16.55
2022-10-20T11:09:17.016Z,13.82
2022-10-20T11:12:21.102Z,9.68
2022-10-20T11:15:24.426Z,9.25
2022-10-20T11:21:12.954Z,10.85
2022-10-20T11:24:13.046Z,7.20
2022-10-20T11:27:18.147Z,12.55
2022-10-20T11:30:15.289Z,12.85
2022-10-20T11:33:18.603Z,12.93
2022-10-20T11:38:55.804Z,9.23
2022-10-20T11:41:50.171Z,12.68
2022-10-20T11:44:41.664Z,12.07
2022-10-20T11:47:41.370Z,9.95
2022-10-20T11:50:27.124Z,11.95
2022-10-20T11:53:35.739Z,11.85
2022-10-20T11:56:34.156Z,14.77
2022-10-20T11:59:25.360Z,16.67
2022-10-20T12:02:32.692Z,12.02
2022-10-20T12:05:33.507Z,12.80
2022-10-20T12:08:29.816Z,16.02
2022-10-20T12:11:16.297Z,12.85
2022-10-20T12:14:08.090Z,13.88
2022-10-20T12:16:55.897Z,11.88
2022-10-20T12:19:41.007Z,11.45
2022-10-20T12:22:26.618Z,9.38
2022-10-20T12:25:22.091Z,8.20
2022-10-20T12:28:20.054Z,5.30
2022-10-20T12:31:05.958Z,4.45
2022-10-20T12:33:54.525Z,7.18
2022-10-20T12:36:40.075Z,7.88
2022-10-20T12:39:29.619Z,5.78
2022-10-20T12:42:29.973Z,5.47
2022-10-20T12:45:18.497Z,3.78
2022-10-20T12:48:06.527Z,5.93
2022-10-20T12:50:53.172Z,5.45
2022-10-20T12:53:38.469Z,6.15
2022-10-20T12:56:32.163Z,4.68
2022-10-20T12:59:22.437Z,11.00
2022-10-20T13:02:11.514Z,6.57
2022-10-20T13:04:57.937Z,8.88
2022-10-20T13:07:46.512Z,10.10
2022-10-20T13:10:36.484Z,6.28
2022-10-20T13:13:21.762Z,6.85
2022-10-20T13:16:16.622Z,11.93
2022-10-20T13:19:06.152Z,11.10
2022-10-20T13:21:52.063Z,7.60
2022-10-20T13:24:42.693Z,8.40
2022-10-20T13:27:30.705Z,17.80
2022-10-20T13:30:22.522Z,8.77
2022-10-20T13:34:02.082Z,8.07
2022-10-20T13:36:56.188Z,4.38
2022-10-20T13:40:00.576Z,6.18
2022-10-20T13:43:04.484Z,5.45
2022-10-20T13:45:49.726Z,6.70
2022-10-20T13:48:50.260Z,3.63
2022-10-20T13:51:47.971Z,4.30
2022-10-20T13:54:37.609Z,3.72
2022-10-20T13:57:31.723Z,4.07
2022-10-20T14:00:22.192Z,3.00
2022-10-20T14:03:17.638Z,5.75
2022-10-20T14:06:02.999Z,2.95
2022-10-20T14:08:48.460Z,2.08
2022-10-20T14:11:34.236Z,3.00
2022-10-20T14:14:23.666Z,4.63
2022-10-20T14:17:17.598Z,6.57
2022-10-20T14:20:19.375Z,4.80
2022-10-20T14:23:06.531Z,2.55
2022-10-20T14:25:53.808Z,6.32
2022-10-20T14:28:40.055Z,3.65
2022-10-20T14:31:25.651Z,4.35
2022-10-20T14:34:20.137Z,4.60
2022-10-20T14:37:08.690Z,3.15
2022-10-20T14:39:54.169Z,4.78
2022-10-20T14:42:45.423Z,3.80
2022-10-20T14:48:21.814Z,4.93
2022-10-20T14:51:30.460Z,3.40
2022-10-20T14:54:26.420Z,5.65
2022-10-20T14:57:17.652Z,3.03
2022-10-20T15:00:27.731Z,5.20
2022-10-20T15:03:13.198Z,4.45
2022-10-20T15:06:03.806Z,4.35
2022-10-20T15:08:54.833Z,4.38
2022-10-20T15:11:40.413Z,5.60
2022-10-20T15:14:25.990Z,6.50
2022-10-20T15:17:36.591Z,3.35
2022-10-20T15:20:34.542Z,7.57
2022-10-20T15:23:28.158Z,3.35
2022-10-20T15:26:14.896Z,6.78
2022-10-20T15:29:00.023Z,5.88
2022-10-20T15:31:45.477Z,4.75
2022-10-20T15:34:30.927Z,5.47
2022-10-20T15:37:17.306Z,6.90
2022-10-20T15:40:03.049Z,5.03
2022-10-20T15:42:48.866Z,6.32
2022-10-20T15:45:45.352Z,7.15
2022-10-20T15:48:30.830Z,3.40
2022-10-20T15:51:27.694Z,5.75
2022-10-20T15:54:19.231Z,3.70
2022-10-20T15:57:04.650Z,10.07
2022-10-20T15:59:50.047Z,10.27
2022-10-20T16:02:35.948Z,3.88
2022-10-20T16:05:23.758Z,6.32
2022-10-20T16:08:10.485Z,11.57
2022-10-20T16:10:56.233Z,6.00
2022-10-20T16:13:41.806Z,4.93
2022-10-20T16:16:27.067Z,7.65
2022-10-20T16:19:12.694Z,5.80
2022-10-20T16:21:58.063Z,5.43
2022-10-20T16:24:51.169Z,6.47
2022-10-20T16:30:37.053Z,6.70
2022-10-20T16:33:37.395Z,4.43
2022-10-20T16:36:36.691Z,6.90
2022-10-20T16:39:22.149Z,10.70
2022-10-20T16:42:07.667Z,6.55
2022-10-20T16:44:53.230Z,7.45
2022-10-20T16:47:39.346Z,8.30
2022-10-20T16:50:25.392Z,13.45
2022-10-20T16:53:11.331Z,4.90
2022-10-20T16:55:57.365Z,6.95
2022-10-20T16:58:42.930Z,5.47
2022-10-20T17:01:28.656Z,12.10
2022-10-20T17:04:14.030Z,6.88
2022-10-20T17:06:59.689Z,13.20
2022-10-20T17:09:45.625Z,8.13
2022-10-20T17:12:31.349Z,9.65
2022-10-20T17:15:16.801Z,7.18
2022-10-20T17:18:02.413Z,6.63
2022-10-20T17:20:53.742Z,7.03
2022-10-20T17:23:42.719Z,6.78
2022-10-20T17:26:33.002Z,7.75
2022-10-20T17:29:22.331Z,4.65
2022-10-20T17:32:18.129Z,9.45
2022-10-20T17:35:04.214Z,6.65
2022-10-20T17:37:49.510Z,5.78
2022-10-20T17:40:38.729Z,9.50
2022-10-20T17:43:24.053Z,5.78
2022-10-20T17:46:15.224Z,9.93
2022-10-20T17:49:04.058Z,9.57
2022-10-20T17:51:49.352Z,8.05
2022-10-20T17:54:34.771Z,5.70
2022-10-20T17:57:20.374Z,9.13
2022-10-20T18:00:11.047Z,8.32
2022-10-20T18:02:59.814Z,9.73
2022-10-20T18:05:47.884Z,16.38
2022-10-20T18:08:33.218Z,5.28
2022-10-20T18:11:21.740Z,10.70
2022-10-20T18:14:07.219Z,19.02
2022-10-20T18:16:52.556Z,10.18
2022-10-20T18:19:37.945Z,8.80
2022-10-20T18:22:23.735Z,11.50
2022-10-20T18:25:09.693Z,13.68
2022-10-20T18:27:58.221Z,11.98
2022-10-20T18:30:44.578Z,15.60
2022-10-20T18:33:29.987Z,13.40
2022-10-20T18:36:18.184Z,12.25
2022-10-20T18:39:05.239Z,13.05
2022-10-20T18:41:52.491Z,20.48
2022-10-20T18:44:38.160Z,16.25
2022-10-20T18:47:23.734Z,11.65
2022-10-20T18:50:09.647Z,8.48
2022-10-20T18:52:55.370Z,14.43
2022-10-20T18:55:40.831Z,9.05
2022-10-20T18:58:27.820Z,9.77
2022-10-20T19:01:16.736Z,12.07
2022-10-20T19:04:03.323Z,9.10
2022-10-20T19:06:49.078Z,8.85
2022-10-20T19:09:34.221Z,10.75
2022-10-20T19:12:19.850Z,9.43
2022-10-20T19:15:05.744Z,8.57
2022-10-20T19:17:51.330Z,17.75
2022-10-20T19:20:36.741Z,13.63
2022-10-20T19:23:22.586Z,15.82
2022-10-20T19:26:12.099Z,13.00
2022-10-20T19:29:00.230Z,13.02
2022-10-20T19:31:55.182Z,15.60
2022-10-20T19:34:41.355Z,16.75
2022-10-20T19:37:26.683Z,14.20
2022-10-20T19:40:12.355Z,12.38
2022-10-20T19:42:57.527Z,12.90
2022-10-20T19:45:47.687Z,12.60
2022-10-20T19:48:35.669Z,12.20
2022-10-20T19:51:21.444Z,14.82
2022-10-20T19:54:07.622Z,10.75
2022-10-20T19:56:52.886Z,11.75
2022-10-20T19:59:38.652Z,10.10
2022-10-20T20:02:24.344Z,14.68
2022-10-20T20:05:10.425Z,15.63
2022-10-20T20:07:55.856Z,13.07
2022-10-20T20:10:41.423Z,12.43
2022-10-20T20:13:27.213Z,13.48
2022-10-20T20:16:12.959Z,9.88
2022-10-20T20:18:59.085Z,14.43
2022-10-20T20:21:46.012Z,16.52
2022-10-20T20:24:32.024Z,11.65
2022-10-20T20:27:17.496Z,10.50
2022-10-20T20:30:03.478Z,16.23
2022-10-20T20:32:52.094Z,14.73
2022-10-20T20:35:39.855Z,13.32
2022-10-20T20:38:25.632Z,11.75
2022-10-20T20:41:14.199Z,12.68
2022-10-20T20:44:04.152Z,13.40
2022-10-20T20:46:52.694Z,8.48
2022-10-20T20:49:38.204Z,12.32
2022-10-20T20:52:23.837Z,13.73
2022-10-20T20:55:09.555Z,14.05
2022-10-20T20:57:54.998Z,12.00
2022-10-20T21:00:40.543Z,10.23
2022-10-20T21:03:25.897Z,11.80
2022-10-20T21:06:14.155Z,13.65
2022-10-20T21:09:02.827Z,14.43
2022-10-20T21:11:49.260Z,13.50
2022-10-20T21:14:35.212Z,18.27
2022-10-20T21:17:21.524Z,14.05
2022-10-20T21:20:08.591Z,11.00
2022-10-20T21:22:54.633Z,15.93
2022-10-20T21:25:46.531Z,18.33
2022-10-20T21:28:35.004Z,8.88
2022-10-20T21:31:25.305Z,13.18
2022-10-20T21:34:12.360Z,11.80
2022-10-20T21:36:58.681Z,9.48
2022-10-20T21:39:44.104Z,10.95
2022-10-20T21:42:29.966Z,16.90
2022-10-20T21:45:18.316Z,11.27
2022-10-20T21:48:05.193Z,10.10
2022-10-20T21:50:51.438Z,9.18
2022-10-20T21:53:37.563Z,14.70
2022-10-20T21:56:23.236Z,13.05
2022-10-20T21:59:24.122Z,14.20
2022-10-20T22:02:13.698Z,13.50
2022-10-20T22:04:59.281Z,12.82
2022-10-20T22:07:44.851Z,14.77
2022-10-20T22:10:30.254Z,21.33
2022-10-20T22:13:16.065Z,16.42
2022-10-20T22:16:01.876Z,18.00
2022-10-20T22:18:47.203Z,17.75
2022-10-20T22:21:36.960Z,13.13
2022-10-20T22:24:23.621Z,14.15
2022-10-20T22:27:15.583Z,15.82
2022-10-20T22:30:11.166Z,11.45
2022-10-20T22:32:56.709Z,12.68
2022-10-20T22:35:42.755Z,14.73
2022-10-20T22:38:27.982Z,9.88
2022-10-20T22:41:13.913Z,9.73
2022-10-20T22:43:59.582Z,12.43
2022-10-20T22:46:45.062Z,13.75
2022-10-20T22:49:30.367Z,17.95
2022-10-20T22:52:15.756Z,11.73
2022-10-20T22:55:01.569Z,14.68
2022-10-20T22:57:51.553Z,12.48
2022-10-20T23:00:40.093Z,11.68
2022-10-20T23:03:25.360Z,11.93
2022-10-20T23:06:17.140Z,11.85
2022-10-20T23:09:02.983Z,15.88
2022-10-20T23:11:48.742Z,13.25
2022-10-20T23:14:34.444Z,11.27
2022-10-20T23:17:20.118Z,10.15
2022-10-20T23:20:06.336Z,8.40
2022-10-20T23:22:52.048Z,12.13
2022-10-20T23:25:41.538Z,10.70
2022-10-20T23:28:26.990Z,12.45
2022-10-20T23:31:20.527Z,13.20
2022-10-20T23:34:06.251Z,14.25
2022-10-20T23:36:51.973Z,13.15
2022-10-20T23:39:37.154Z,14.93
2022-10-20T23:42:22.844Z,10.73
2022-10-20T23:45:08.763Z,14.05
2022-10-20T23:47:54.166Z,14.63
2022-10-20T23:50:39.930Z,14.20
2022-10-20T23:53:25.234Z,14.20
2022-10-20T23:56:10.504Z,12.57
